createdAt,value
2022-08-19T00:01:59.017Z,86.84
2022-08-19T00:04:30.873Z,86.71
2022-08-19T00:06:58.772Z,86.87
2022-08-19T00:09:26.700Z,86.88
2022-08-19T00:11:56.351Z,87.24
2022-08-19T00:14:24.892Z,87.38
2022-08-19T00:16:55.489Z,87.98
2022-08-19T00:19:24.449Z,88.54
2022-08-19T00:21:52.425Z,89.09
2022-08-19T00:24:19.887Z,89.18
2022-08-19T00:26:47.242Z,89.03
2022-08-19T00:29:16.061Z,89.06
2022-08-19T00:31:44.085Z,88.92
2022-08-19T00:34:13.023Z,88.81
2022-08-19T00:36:41.211Z,88.64
2022-08-19T00:39:08.318Z,88.68
2022-08-19T00:41:35.274Z,88.73
2022-08-19T00:44:12.195Z,89.07
2022-08-19T00:46:42.604Z,89.13
2022-08-19T00:49:17.207Z,89.28
2022-08-19T00:51:48.663Z,89.41
2022-08-19T00:54:16.091Z,89.57
2022-08-19T00:56:43.612Z,89.49
2022-08-19T00:59:10.700Z,89.37
2022-08-19T01:01:41.370Z,89.48
2022-08-19T01:04:08.737Z,89.57
2022-08-19T01:06:38.227Z,89.58
2022-08-19T01:09:05.664Z,89.64
2022-08-19T01:11:36.397Z,89.55
2022-08-19T01:14:04.356Z,89.62
2022-08-19T01:16:35.651Z,89.63
2022-08-19T01:19:02.983Z,89.60
2022-08-19T01:21:42.101Z,89.61
2022-08-19T01:24:09.466Z,89.59
2022-08-19T01:26:42.755Z,90.00
2022-08-19T01:29:11.582Z,90.37
2022-08-19T01:31:40.136Z,90.51
2022-08-19T01:34:08.735Z,90.86
2022-08-19T01:36:40.347Z,90.92
2022-08-19T01:39:11.874Z,91.42
2022-08-19T01:41:39.070Z,91.65
2022-08-19T01:44:18.274Z,91.73
2022-08-19T01:46:48.058Z,91.77
2022-08-19T01:49:15.927Z,91.75
2022-08-19T01:51:42.959Z,91.71
2022-08-19T01:54:11.433Z,91.59
2022-08-19T01:56:39.252Z,91.75
2022-08-19T01:59:14.418Z,91.81
2022-08-19T02:01:42.292Z,91.48
2022-08-19T02:04:09.634Z,91.51
2022-08-19T02:06:38.228Z,91.44
2022-08-19T02:09:06.349Z,91.56
2022-08-19T02:11:42.717Z,91.47
2022-08-19T02:14:10.349Z,91.47
2022-08-19T02:16:38.116Z,91.43
2022-08-19T02:19:05.607Z,91.40
2022-08-19T02:21:32.772Z,91.23
2022-08-19T02:23:59.560Z,91.19
2022-08-19T02:26:38.924Z,91.14
2022-08-19T02:29:06.727Z,91.28
2022-08-19T02:31:42.827Z,91.29
2022-08-19T02:34:09.913Z,91.30
2022-08-19T02:39:04.502Z,91.29
2022-08-19T02:41:33.701Z,91.40
2022-08-19T02:44:29.172Z,91.24
2022-08-19T02:46:52.929Z,91.68
2022-08-19T02:49:20.631Z,91.66
2022-08-19T02:51:48.237Z,91.88
2022-08-19T02:54:15.748Z,91.90
2022-08-19T02:56:44.145Z,91.98
2022-08-19T02:59:12.152Z,92.19
2022-08-19T03:01:43.505Z,92.31
2022-08-19T03:04:12.992Z,92.35
2022-08-19T03:06:43.559Z,92.35
2022-08-19T03:09:11.600Z,92.30
2022-08-19T03:11:38.509Z,92.37
2022-08-19T03:14:07.387Z,92.28
2022-08-19T03:16:45.601Z,92.19
2022-08-19T03:19:13.179Z,92.17
2022-08-19T03:21:41.175Z,92.49
2022-08-19T03:24:09.830Z,92.65
2022-08-19T03:26:48.876Z,92.68
2022-08-19T03:29:30.086Z,92.86
2022-08-19T03:31:59.626Z,92.88
2022-08-19T03:34:29.266Z,92.86
2022-08-19T03:36:58.866Z,93.06
2022-08-19T03:39:26.839Z,93.14
2022-08-19T03:42:32.841Z,93.53
2022-08-19T03:44:46.066Z,93.82
2022-08-19T03:47:17.158Z,93.90
2022-08-19T03:49:45.177Z,94.19
2022-08-19T03:52:12.534Z,94.49
2022-08-19T03:54:40.299Z,94.50
2022-08-19T03:57:08.185Z,94.80
2022-08-19T03:59:37.488Z,95.08
2022-08-19T04:02:21.552Z,95.09
2022-08-19T04:04:48.687Z,95.15
2022-08-19T04:07:17.242Z,95.09
2022-08-19T04:09:44.482Z,95.40
2022-08-19T04:12:11.224Z,95.66
2022-08-19T04:14:38.432Z,95.68
2022-08-19T04:17:06.026Z,95.77
2022-08-19T04:19:34.714Z,95.81
2022-08-19T04:22:14.062Z,95.52
2022-08-19T04:24:41.428Z,95.84
2022-08-19T04:27:08.614Z,95.91
2022-08-19T04:29:35.399Z,95.81
2022-08-19T04:32:09.000Z,95.53
2022-08-19T04:35:01.138Z,95.49
2022-08-19T04:37:27.292Z,95.28
2022-08-19T04:42:59.892Z,94.93
2022-08-19T04:45:27.070Z,94.60
2022-08-19T04:47:58.699Z,94.42
2022-08-19T04:50:45.096Z,94.27
2022-08-19T04:53:12.711Z,94.18
2022-08-19T04:55:41.927Z,93.89
2022-08-19T04:58:09.264Z,93.70
2022-08-19T05:00:39.729Z,93.55
2022-08-19T05:03:07.590Z,93.53
2022-08-19T05:05:44.407Z,93.47
2022-08-19T05:08:31.486Z,93.25
2022-08-19T05:10:59.270Z,92.58
2022-08-19T05:13:27.788Z,92.46
2022-08-19T05:15:59.910Z,92.28
2022-08-19T05:18:45.735Z,91.87
2022-08-19T05:21:44.976Z,91.53
2022-08-19T05:24:12.668Z,91.18
2022-08-19T05:26:47.163Z,91.05
2022-08-19T05:29:16.427Z,90.87
2022-08-19T05:31:44.045Z,90.74
2022-08-19T05:34:18.266Z,90.53
2022-08-19T05:36:47.256Z,90.27
2022-08-19T05:39:17.014Z,90.14
2022-08-19T05:41:45.522Z,90.08
2022-08-19T05:44:12.932Z,89.51
2022-08-19T05:46:40.636Z,89.31
2022-08-19T05:49:08.967Z,88.51
2022-08-19T05:51:38.399Z,88.49
2022-08-19T05:54:07.069Z,87.95
2022-08-19T05:56:37.621Z,87.86
2022-08-19T05:59:08.181Z,87.40
2022-08-19T06:01:38.805Z,86.90
2022-08-19T06:04:05.898Z,86.03
2022-08-19T06:06:35.120Z,86.07
2022-08-19T06:09:06.508Z,86.21
2022-08-19T06:11:44.472Z,85.80
2022-08-19T06:14:20.311Z,85.24
2022-08-19T06:16:55.096Z,85.44
2022-08-19T06:19:25.137Z,84.81
2022-08-19T06:21:53.306Z,84.48
2022-08-19T06:24:26.170Z,84.43
2022-08-19T06:26:59.254Z,83.45
2022-08-19T06:29:30.282Z,83.07
2022-08-19T06:32:00.144Z,83.22
2022-08-19T06:34:29.179Z,82.70
2022-08-19T06:36:57.427Z,83.01
2022-08-19T06:39:27.014Z,82.55
2022-08-19T06:41:58.972Z,82.84
2022-08-19T06:44:30.456Z,82.63
2022-08-19T06:46:59.614Z,82.72
2022-08-19T06:49:31.929Z,83.11
2022-08-19T06:52:01.951Z,83.53
2022-08-19T06:54:30.716Z,83.54
2022-08-19T06:57:05.004Z,83.39
2022-08-19T06:59:35.539Z,83.26
2022-08-19T07:02:06.506Z,82.50
2022-08-19T07:04:35.083Z,82.17
2022-08-19T07:07:21.282Z,82.76
2022-08-19T07:09:51.587Z,83.06
2022-08-19T07:12:26.021Z,83.19
2022-08-19T07:14:53.755Z,82.19
2022-08-19T07:17:21.686Z,82.09
2022-08-19T07:19:48.645Z,82.25
2022-08-19T07:22:15.925Z,81.88
2022-08-19T07:24:51.538Z,81.86
2022-08-19T07:27:24.694Z,81.44
2022-08-19T07:29:57.658Z,81.82
2022-08-19T07:32:27.938Z,81.03
2022-08-19T07:34:57.130Z,80.61
2022-08-19T07:37:33.125Z,79.95
2022-08-19T07:40:01.329Z,79.13
2022-08-19T07:42:30.570Z,77.92
2022-08-19T07:44:58.407Z,77.51
2022-08-19T07:47:49.171Z,76.77
2022-08-19T07:50:12.559Z,75.23
2022-08-19T07:52:40.446Z,74.49
2022-08-19T07:55:40.153Z,74.99
2022-08-19T07:57:56.177Z,75.18
2022-08-19T08:00:24.732Z,74.53
2022-08-19T08:02:52.928Z,73.94
2022-08-19T08:05:43.622Z,74.52
2022-08-19T08:08:30.572Z,73.99
2022-08-19T08:10:58.264Z,74.47
2022-08-19T08:13:26.569Z,73.80
2022-08-19T08:15:55.909Z,72.81
2022-08-19T08:18:27.550Z,72.32
2022-08-19T08:20:55.587Z,70.31
2022-08-19T08:23:26.485Z,68.84
2022-08-19T08:25:56.549Z,68.06
2022-08-19T08:28:25.305Z,67.33
2022-08-19T08:30:53.394Z,67.25
2022-08-19T08:33:33.558Z,67.33
2022-08-19T08:36:09.506Z,65.89
2022-08-19T08:38:41.694Z,65.33
2022-08-19T08:41:45.457Z,64.79
2022-08-19T08:44:28.970Z,64.44
2022-08-19T08:47:07.826Z,64.19
2022-08-19T08:49:37.710Z,64.03
2022-08-19T08:52:07.788Z,65.15
2022-08-19T08:54:55.001Z,64.95
2022-08-19T08:57:45.510Z,63.69
2022-08-19T09:00:19.418Z,62.78
2022-08-19T09:02:50.405Z,62.52
2022-08-19T09:05:22.374Z,61.49
2022-08-19T09:07:57.028Z,61.18
2022-08-19T09:10:44.430Z,60.18
2022-08-19T09:13:37.509Z,59.97
2022-08-19T09:16:27.949Z,59.70
2022-08-19T09:19:03.374Z,59.04
2022-08-19T09:21:34.392Z,59.49
2022-08-19T09:24:03.469Z,56.92
2022-08-19T09:26:48.676Z,56.68
2022-08-19T09:29:22.472Z,56.92
2022-08-19T09:31:50.943Z,56.29
2022-08-19T09:34:20.970Z,54.72
2022-08-19T09:36:50.578Z,54.88
2022-08-19T09:39:18.428Z,55.25
2022-08-19T09:41:47.453Z,55.21
2022-08-19T09:44:16.908Z,55.19
2022-08-19T09:46:47.843Z,54.85
2022-08-19T09:49:16.035Z,55.17
2022-08-19T09:51:50.812Z,55.10
2022-08-19T09:54:23.521Z,55.35
2022-08-19T09:56:52.703Z,55.37
2022-08-19T09:59:19.690Z,56.50
2022-08-19T10:01:46.906Z,55.99
2022-08-19T10:04:19.727Z,55.60
2022-08-19T10:06:51.863Z,55.70
2022-08-19T10:09:26.352Z,55.71
2022-08-19T10:12:02.477Z,54.89
2022-08-19T10:14:29.883Z,55.27
2022-08-19T10:16:57.481Z,54.85
2022-08-19T10:19:27.114Z,54.28
2022-08-19T10:21:55.604Z,54.45
2022-08-19T10:24:28.656Z,54.50
2022-08-19T10:26:57.247Z,54.83
2022-08-19T10:29:32.491Z,52.72
2022-08-19T10:32:02.451Z,51.82
2022-08-19T10:34:31.339Z,50.82
2022-08-19T10:37:00.983Z,50.44
2022-08-19T10:39:32.811Z,50.06
2022-08-19T10:42:16.164Z,49.61
2022-08-19T10:44:43.301Z,48.45
2022-08-19T10:47:17.212Z,49.58
2022-08-19T10:50:12.105Z,49.25
2022-08-19T10:52:49.054Z,49.89
2022-08-19T10:55:38.323Z,49.47
2022-08-19T10:58:05.742Z,49.74
2022-08-19T11:00:33.430Z,50.18
2022-08-19T11:03:00.281Z,48.91
2022-08-19T11:05:27.212Z,49.68
2022-08-19T11:07:54.565Z,49.93
2022-08-19T11:10:22.355Z,49.32
2022-08-19T11:12:49.446Z,49.63
2022-08-19T11:15:16.893Z,49.14
2022-08-19T11:17:44.894Z,47.80
2022-08-19T11:20:16.265Z,46.86
2022-08-19T11:22:43.406Z,46.09
2022-08-19T11:25:14.643Z,48.05
2022-08-19T11:27:45.586Z,47.50
2022-08-19T11:30:13.906Z,46.78
2022-08-19T11:32:47.101Z,46.92
2022-08-19T11:35:17.002Z,47.55
2022-08-19T11:37:46.291Z,47.95
2022-08-19T11:40:13.572Z,46.46
2022-08-19T11:42:56.736Z,46.51
2022-08-19T11:45:27.195Z,46.53
2022-08-19T11:47:54.489Z,47.45
2022-08-19T11:50:21.934Z,46.51
2022-08-19T11:52:53.372Z,45.69
2022-08-19T11:55:20.824Z,45.41
2022-08-19T11:57:48.000Z,45.84
2022-08-19T12:00:15.828Z,45.27
2022-08-19T12:02:43.365Z,44.69
2022-08-19T12:05:12.887Z,43.36
2022-08-19T12:07:41.882Z,43.10
2022-08-19T12:10:09.543Z,43.10
2022-08-19T12:12:43.541Z,42.13
2022-08-19T12:15:12.041Z,41.33
2022-08-19T12:17:39.393Z,40.88
2022-08-19T12:20:07.935Z,41.29
2022-08-19T12:22:35.962Z,38.97
2022-08-19T12:25:03.490Z,38.32
2022-08-19T12:27:39.916Z,37.69
2022-08-19T12:30:10.242Z,37.67
2022-08-19T12:32:37.265Z,37.17
2022-08-19T12:35:04.594Z,36.01
2022-08-19T12:37:33.470Z,35.64
2022-08-19T12:40:00.610Z,34.43
2022-08-19T12:42:27.952Z,33.06
2022-08-19T12:44:55.080Z,32.72
2022-08-19T12:47:22.157Z,32.79
2022-08-19T12:49:55.573Z,30.99
2022-08-19T12:52:24.805Z,29.91
2022-08-19T12:54:55.058Z,28.69
2022-08-19T12:57:31.459Z,27.91
2022-08-19T13:00:07.853Z,27.50
2022-08-19T13:02:38.820Z,26.12
2022-08-19T13:05:09.378Z,25.89
2022-08-19T13:07:38.169Z,25.14
2022-08-19T13:10:06.737Z,24.48
2022-08-19T13:12:34.201Z,24.20
2022-08-19T13:15:01.037Z,24.07
2022-08-19T13:17:31.761Z,23.33
2022-08-19T13:20:01.833Z,23.31
2022-08-19T13:22:28.892Z,22.27
2022-08-19T13:24:55.815Z,22.67
2022-08-19T13:27:22.888Z,22.40
2022-08-19T13:30:08.723Z,22.20
2022-08-19T13:32:54.054Z,21.57
2022-08-19T13:35:20.973Z,20.97
2022-08-19T13:37:51.286Z,20.84
2022-08-19T13:40:24.969Z,20.91
2022-08-19T13:42:54.526Z,21.02
2022-08-19T13:45:23.940Z,21.04
2022-08-19T13:47:55.858Z,20.48
2022-08-19T13:50:28.917Z,20.44
2022-08-19T13:52:59.061Z,20.72
2022-08-19T13:55:27.797Z,21.13
2022-08-19T13:58:00.140Z,20.53
2022-08-19T14:00:29.234Z,20.01
2022-08-19T14:02:58.415Z,20.29
2022-08-19T14:05:27.200Z,19.96
2022-08-19T14:07:58.037Z,19.84
2022-08-19T14:10:25.766Z,19.86
2022-08-19T14:12:59.097Z,19.60
2022-08-19T14:15:27.063Z,19.29
2022-08-19T14:17:55.163Z,18.17
2022-08-19T14:20:25.972Z,18.31
2022-08-19T14:22:54.016Z,18.06
2022-08-19T14:25:24.546Z,18.38
2022-08-19T14:27:51.954Z,18.39
2022-08-19T14:30:26.495Z,19.21
2022-08-19T14:32:54.047Z,18.94
2022-08-19T14:35:22.825Z,18.10
2022-08-19T14:37:50.617Z,18.16
2022-08-19T14:40:22.187Z,18.91
2022-08-19T14:42:49.726Z,18.56
2022-08-19T14:45:16.485Z,18.77
2022-08-19T14:47:43.254Z,17.64
2022-08-19T14:50:18.361Z,17.98
2022-08-19T14:52:48.699Z,18.21
2022-08-19T14:55:16.912Z,18.25
2022-08-19T14:57:44.154Z,17.63
2022-08-19T15:00:14.687Z,17.81
2022-08-19T15:02:42.761Z,18.27
2022-08-19T15:05:14.031Z,18.57
2022-08-19T15:07:41.828Z,17.98
2022-08-19T15:10:12.040Z,18.14
2022-08-19T15:12:43.635Z,17.61
2022-08-19T15:15:14.779Z,17.31
2022-08-19T15:17:49.465Z,17.31
2022-08-19T15:20:22.069Z,17.66
2022-08-19T15:22:49.174Z,16.92
2022-08-19T15:25:17.784Z,16.71
2022-08-19T15:27:44.876Z,16.93
2022-08-19T15:30:12.086Z,16.01
2022-08-19T15:32:40.028Z,16.04
2022-08-19T15:35:08.075Z,16.69
2022-08-19T15:37:37.678Z,16.70
2022-08-19T15:40:07.530Z,17.91
2022-08-19T15:42:36.855Z,17.87
2022-08-19T15:45:07.119Z,17.61
2022-08-19T15:47:34.657Z,17.70
2022-08-19T15:50:17.074Z,18.07
2022-08-19T15:52:58.313Z,18.21
2022-08-19T15:55:34.875Z,19.11
2022-08-19T15:58:28.534Z,19.56
2022-08-19T16:01:16.629Z,20.47
2022-08-19T16:04:05.817Z,21.52
2022-08-19T16:06:45.296Z,21.85
2022-08-19T16:09:13.783Z,22.02
2022-08-19T16:11:45.428Z,21.85
2022-08-19T16:14:12.684Z,22.02
2022-08-19T16:16:39.407Z,22.25
2022-08-19T16:19:10.206Z,21.22
2022-08-19T16:21:41.419Z,21.41
2022-08-19T16:24:10.650Z,21.43
2022-08-19T16:26:37.528Z,20.80
2022-08-19T16:29:08.993Z,20.79
2022-08-19T16:31:39.562Z,20.97
2022-08-19T16:34:06.974Z,20.85
2022-08-19T16:36:33.783Z,20.67
2022-08-19T16:39:01.121Z,20.79
2022-08-19T16:41:28.825Z,20.85
2022-08-19T16:43:55.791Z,20.83
2022-08-19T16:46:24.634Z,20.08
2022-08-19T16:48:54.520Z,20.31
2022-08-19T16:51:22.774Z,20.62
2022-08-19T16:53:52.981Z,21.12
2022-08-19T16:56:21.266Z,21.26
2022-08-19T16:58:50.193Z,20.93
2022-08-19T17:01:17.539Z,21.31
2022-08-19T17:03:44.431Z,21.62
2022-08-19T17:06:15.839Z,21.61
2022-08-19T17:08:48.597Z,22.25
2022-08-19T17:11:18.577Z,22.84
2022-08-19T17:13:47.576Z,23.42
2022-08-19T17:16:16.070Z,23.94
2022-08-19T17:18:42.998Z,24.87
2022-08-19T17:21:09.845Z,25.23
2022-08-19T17:23:43.031Z,26.15
2022-08-19T17:26:18.023Z,26.83
2022-08-19T17:28:49.664Z,26.97
2022-08-19T17:31:20.075Z,27.21
2022-08-19T17:33:48.427Z,26.95
2022-08-19T17:36:17.196Z,26.82
2022-08-19T17:38:44.728Z,26.76
2022-08-19T17:41:11.651Z,26.73
2022-08-19T17:43:43.129Z,26.70
2022-08-19T17:46:18.128Z,26.99
2022-08-19T17:48:52.275Z,27.56
2022-08-19T17:51:25.346Z,28.00
2022-08-19T17:53:53.817Z,28.58
2022-08-19T17:56:22.219Z,28.71
2022-08-19T17:58:57.899Z,28.91
2022-08-19T18:01:35.504Z,29.19
2022-08-19T18:04:17.316Z,29.08
2022-08-19T18:06:46.622Z,29.39
2022-08-19T18:09:24.034Z,29.84
2022-08-19T18:11:53.492Z,30.33
2022-08-19T18:14:33.036Z,30.52
2022-08-19T18:17:10.150Z,30.87
2022-08-19T18:19:41.571Z,31.31
2022-08-19T18:22:22.646Z,31.86
2022-08-19T18:24:49.579Z,31.93
2022-08-19T18:27:17.094Z,32.16
2022-08-19T18:29:44.599Z,32.70
2022-08-19T18:32:14.428Z,33.16
2022-08-19T18:34:45.953Z,33.67
2022-08-19T18:37:13.539Z,34.28
2022-08-19T18:39:58.911Z,34.72
2022-08-19T18:42:44.594Z,35.46
2022-08-19T18:45:30.407Z,36.25
2022-08-19T18:48:24.204Z,37.04
2022-08-19T18:50:57.301Z,37.56
2022-08-19T18:53:25.628Z,37.86
2022-08-19T18:55:54.155Z,38.22
2022-08-19T18:58:26.865Z,38.72
2022-08-19T19:00:57.548Z,39.02
2022-08-19T19:03:25.731Z,39.49
2022-08-19T19:05:53.257Z,39.86
2022-08-19T19:08:20.444Z,40.38
2022-08-19T19:10:53.857Z,40.84
2022-08-19T19:13:24.341Z,41.42
2022-08-19T19:15:51.720Z,41.73
2022-08-19T19:18:18.899Z,42.29
2022-08-19T19:20:45.784Z,42.65
2022-08-19T19:23:13.555Z,42.97
2022-08-19T19:25:49.820Z,43.22
2022-08-19T19:28:17.729Z,43.68
2022-08-19T19:30:44.541Z,44.07
2022-08-19T19:33:11.781Z,44.34
2022-08-19T19:35:41.116Z,44.59
2022-08-19T19:38:13.932Z,44.93
2022-08-19T19:40:40.848Z,45.24
2022-08-19T19:43:10.511Z,45.55
2022-08-19T19:45:38.115Z,45.91
2022-08-19T19:48:05.683Z,45.95
2022-08-19T19:50:32.716Z,46.19
2022-08-19T19:52:59.801Z,46.42
2022-08-19T19:55:26.697Z,46.71
2022-08-19T19:57:54.198Z,46.97
2022-08-19T20:00:22.769Z,47.32
2022-08-19T20:02:50.856Z,47.79
2022-08-19T20:05:20.806Z,48.10
2022-08-19T20:08:06.446Z,48.22
2022-08-19T20:10:33.579Z,48.52
2022-08-19T20:13:02.531Z,48.62
2022-08-19T20:15:31.428Z,48.90
2022-08-19T20:17:59.822Z,49.08
2022-08-19T20:20:27.089Z,49.25
2022-08-19T20:22:54.326Z,49.49
2022-08-19T20:25:22.240Z,49.80
2022-08-19T20:27:50.031Z,50.02
2022-08-19T20:30:21.222Z,50.18
2022-08-19T20:32:50.709Z,50.34
2022-08-19T20:35:20.640Z,50.57
2022-08-19T20:37:47.775Z,50.95
2022-08-19T20:40:15.399Z,51.52
2022-08-19T20:42:43.815Z,51.88
2022-08-19T20:45:19.688Z,52.21
2022-08-19T20:48:03.300Z,52.75
2022-08-19T20:50:32.122Z,53.33
2022-08-19T20:52:59.065Z,53.62
2022-08-19T20:55:27.307Z,53.80
2022-08-19T20:57:54.833Z,54.07
2022-08-19T21:00:22.391Z,54.36
2022-08-19T21:02:49.254Z,54.51
2022-08-19T21:05:16.532Z,54.67
2022-08-19T21:07:43.488Z,54.87
2022-08-19T21:10:10.608Z,55.05
2022-08-19T21:12:37.532Z,55.36
2022-08-19T21:15:04.919Z,55.67
2022-08-19T21:17:31.805Z,55.71
2022-08-19T21:19:58.642Z,55.90
2022-08-19T21:22:25.327Z,56.22
2022-08-19T21:24:52.249Z,56.54
2022-08-19T21:27:18.985Z,57.12
2022-08-19T21:29:45.519Z,57.42
2022-08-19T21:32:14.491Z,57.73
2022-08-19T21:34:43.965Z,57.92
2022-08-19T21:37:19.029Z,57.61
2022-08-19T21:39:52.533Z,57.56
2022-08-19T21:42:19.327Z,57.70
2022-08-19T21:44:46.083Z,58.24
2022-08-19T21:47:13.184Z,58.78
2022-08-19T21:49:41.075Z,58.88
2022-08-19T21:52:08.256Z,58.99
2022-08-19T21:54:38.009Z,59.08
2022-08-19T21:57:10.046Z,58.92
2022-08-19T21:59:43.932Z,59.05
2022-08-19T22:02:21.547Z,59.05
2022-08-19T22:04:50.129Z,59.05
2022-08-19T22:07:17.741Z,59.28
2022-08-19T22:09:46.346Z,59.44
2022-08-19T22:12:25.339Z,59.92
2022-08-19T22:14:52.992Z,60.40
2022-08-19T22:17:20.523Z,61.02
2022-08-19T22:19:47.297Z,61.37
2022-08-19T22:22:21.158Z,61.81
2022-08-19T22:24:47.923Z,62.00
2022-08-19T22:27:14.456Z,62.17
2022-08-19T22:29:41.084Z,62.15
2022-08-19T22:32:26.692Z,62.23
2022-08-19T22:34:57.036Z,62.23
2022-08-19T22:37:23.853Z,62.49
2022-08-19T22:39:50.692Z,62.86
2022-08-19T22:42:22.035Z,62.94
2022-08-19T22:44:48.936Z,63.14
2022-08-19T22:47:16.318Z,63.11
2022-08-19T22:49:44.683Z,63.53
2022-08-19T22:52:18.253Z,63.62
2022-08-19T22:54:54.008Z,63.82
2022-08-19T22:57:22.406Z,63.97
2022-08-19T22:59:52.084Z,63.97
2022-08-19T23:02:21.753Z,64.24
2022-08-19T23:04:49.800Z,64.87
2022-08-19T23:07:17.868Z,65.11
2022-08-19T23:09:50.728Z,65.32
2022-08-19T23:12:27.000Z,65.58
2022-08-19T23:14:53.631Z,65.74
2022-08-19T23:17:20.479Z,65.92
2022-08-19T23:19:49.660Z,66.06
2022-08-19T23:22:18.451Z,66.21
2022-08-19T23:24:45.086Z,66.35
2022-08-19T23:27:30.296Z,66.49
2022-08-19T23:30:15.650Z,66.63
2022-08-19T23:32:42.539Z,66.63
2022-08-19T23:35:12.528Z,66.71
2022-08-19T23:37:39.387Z,66.82
2022-08-19T23:40:08.556Z,67.11
2022-08-19T23:42:35.580Z,67.29
2022-08-19T23:45:06.779Z,67.49
2022-08-19T23:47:35.583Z,67.52
2022-08-19T23:50:06.125Z,67.45
2022-08-19T23:52:35.380Z,67.60
2022-08-19T23:55:06.301Z,67.60
2022-08-19T23:57:33.234Z,67.92
